sensor_id;sensor_type;location;lat;lon;timestamp;P1;durP1;ratioP1;P2;durP2;ratioP2
4754;SDS011;2391;47.212;7.542;2022-11-24T00:02:03;3.03;;;2.77;;
4754;SDS011;2391;47.212;7.542;2022-11-24T00:04:29;4.07;;;2.30;;
4754;SDS011;2391;47.212;7.542;2022-11-24T00:06:55;5.70;;;2.40;;
4754;SDS011;2391;47.212;7.542;2022-11-24T00:09:21;3.30;;;2.20;;
4754;SDS011;2391;47.212;7.542;2022-11-24T00:11:47;3.00;;;2.70;;
4754;SDS011;2391;47.212;7.542;2022-11-24T00:14:12;3.37;;;2.20;;
4754;SDS011;2391;47.212;7.542;2022-11-24T00:16:38;4.40;;;2.10;;
4754;SDS011;2391;47.212;7.542;2022-11-24T00:19:05;4.07;;;2.30;;
4754;SDS011;2391;47.212;7.542;2022-11-24T00:21:33;3.40;;;2.07;;
4754;SDS011;2391;47.212;7.542;2022-11-24T00:24:00;8.40;;;2.70;;
4754;SDS011;2391;47.212;7.542;2022-11-24T00:26:27;4.10;;;1.90;;
4754;SDS011;2391;47.212;7.542;2022-11-24T00:28:57;5.20;;;2.00;;
4754;SDS011;2391;47.212;7.542;2022-11-24T00:31:25;2.27;;;2.10;;
4754;SDS011;2391;47.212;7.542;2022-11-24T00:33:54;5.33;;;2.20;;
4754;SDS011;2391;47.212;7.542;2022-11-24T00:36:23;2.03;;;1.80;;
4754;SDS011;2391;47.212;7.542;2022-11-24T00:38:52;7.60;;;2.27;;
4754;SDS011;2391;47.212;7.542;2022-11-24T00:41:22;3.30;;;2.53;;
4754;SDS011;2391;47.212;7.542;2022-11-24T00:43:49;2.13;;;1.90;;
4754;SDS011;2391;47.212;7.542;2022-11-24T00:46:15;3.20;;;2.13;;
4754;SDS011;2391;47.212;7.542;2022-11-24T00:48:41;2.00;;;1.80;;
4754;SDS011;2391;47.212;7.542;2022-11-24T00:51:08;5.30;;;2.47;;
4754;SDS011;2391;47.212;7.542;2022-11-24T00:53:35;3.03;;;2.40;;
4754;SDS011;2391;47.212;7.542;2022-11-24T00:56:01;2.33;;;2.13;;
4754;SDS011;2391;47.212;7.542;2022-11-24T00:58:30;2.40;;;2.20;;
4754;SDS011;2391;47.212;7.542;2022-11-24T01:01:00;3.53;;;2.00;;
4754;SDS011;2391;47.212;7.542;2022-11-24T01:03:29;3.17;;;2.43;;
4754;SDS011;2391;47.212;7.542;2022-11-24T01:05:55;7.03;;;2.33;;
4754;SDS011;2391;47.212;7.542;2022-11-24T01:08:21;2.63;;;2.30;;
4754;SDS011;2391;47.212;7.542;2022-11-24T01:10:47;6.93;;;2.60;;
4754;SDS011;2391;47.212;7.542;2022-11-24T01:13:13;7.67;;;2.43;;
4754;SDS011;2391;47.212;7.542;2022-11-24T01:15:38;4.50;;;2.43;;
4754;SDS011;2391;47.212;7.542;2022-11-24T01:18:04;2.70;;;2.17;;
4754;SDS011;2391;47.212;7.542;2022-11-24T01:20:30;2.00;;;1.90;;
4754;SDS011;2391;47.212;7.542;2022-11-24T01:22:56;1.90;;;1.70;;
4754;SDS011;2391;47.212;7.542;2022-11-24T01:25:22;5.03;;;2.40;;
4754;SDS011;2391;47.212;7.542;2022-11-24T01:27:48;3.17;;;1.83;;
4754;SDS011;2391;47.212;7.542;2022-11-24T01:30:14;4.40;;;2.17;;
4754;SDS011;2391;47.212;7.542;2022-11-24T01:32:40;2.40;;;2.20;;
4754;SDS011;2391;47.212;7.542;2022-11-24T01:35:06;6.37;;;1.63;;
4754;SDS011;2391;47.212;7.542;2022-11-24T01:37:32;5.20;;;2.60;;
4754;SDS011;2391;47.212;7.542;2022-11-24T01:39:58;6.13;;;2.00;;
4754;SDS011;2391;47.212;7.542;2022-11-24T01:42:24;2.50;;;2.07;;
4754;SDS011;2391;47.212;7.542;2022-11-24T01:44:52;1.73;;;1.60;;
4754;SDS011;2391;47.212;7.542;2022-11-24T01:49:58;3.37;;;1.77;;
4754;SDS011;2391;47.212;7.542;2022-11-24T01:52:33;2.90;;;1.57;;
4754;SDS011;2391;47.212;7.542;2022-11-24T01:55:05;6.77;;;2.07;;
4754;SDS011;2391;47.212;7.542;2022-11-24T01:57:35;2.87;;;1.40;;
4754;SDS011;2391;47.212;7.542;2022-11-24T02:00:05;5.73;;;1.97;;
4754;SDS011;2391;47.212;7.542;2022-11-24T02:02:33;1.50;;;1.30;;
4754;SDS011;2391;47.212;7.542;2022-11-24T02:05:02;2.67;;;1.40;;
4754;SDS011;2391;47.212;7.542;2022-11-24T02:07:29;7.57;;;2.37;;
4754;SDS011;2391;47.212;7.542;2022-11-24T02:09:55;5.93;;;1.60;;
4754;SDS011;2391;47.212;7.542;2022-11-24T02:12:25;3.00;;;1.80;;
4754;SDS011;2391;47.212;7.542;2022-11-24T02:14:52;4.93;;;1.93;;
4754;SDS011;2391;47.212;7.542;2022-11-24T02:17:19;4.87;;;1.10;;
4754;SDS011;2391;47.212;7.542;2022-11-24T02:19:48;3.67;;;1.40;;
4754;SDS011;2391;47.212;7.542;2022-11-24T02:22:38;2.60;;;1.23;;
4754;SDS011;2391;47.212;7.542;2022-11-24T02:25:08;1.10;;;1.00;;
4754;SDS011;2391;47.212;7.542;2022-11-24T02:27:50;3.30;;;1.10;;
4754;SDS011;2391;47.212;7.542;2022-11-24T02:30:17;3.67;;;1.37;;
4754;SDS011;2391;47.212;7.542;2022-11-24T02:32:43;4.90;;;1.40;;
4754;SDS011;2391;47.212;7.542;2022-11-24T02:35:09;2.20;;;1.20;;
4754;SDS011;2391;47.212;7.542;2022-11-24T02:37:36;1.67;;;0.90;;
4754;SDS011;2391;47.212;7.542;2022-11-24T02:40:02;6.00;;;1.30;;
4754;SDS011;2391;47.212;7.542;2022-11-24T02:42:30;3.37;;;1.20;;
4754;SDS011;2391;47.212;7.542;2022-11-24T02:44:58;14.40;;;1.27;;
4754;SDS011;2391;47.212;7.542;2022-11-24T02:47:26;1.90;;;1.10;;
4754;SDS011;2391;47.212;7.542;2022-11-24T02:49:52;3.90;;;1.20;;
4754;SDS011;2391;47.212;7.542;2022-11-24T02:52:18;3.30;;;1.10;;
4754;SDS011;2391;47.212;7.542;2022-11-24T02:54:44;2.70;;;1.67;;
4754;SDS011;2391;47.212;7.542;2022-11-24T02:57:10;2.37;;;1.10;;
4754;SDS011;2391;47.212;7.542;2022-11-24T02:59:36;2.97;;;1.30;;
4754;SDS011;2391;47.212;7.542;2022-11-24T03:02:02;1.90;;;1.10;;
4754;SDS011;2391;47.212;7.542;2022-11-24T03:04:29;2.97;;;1.23;;
4754;SDS011;2391;47.212;7.542;2022-11-24T03:06:54;3.00;;;1.10;;
4754;SDS011;2391;47.212;7.542;2022-11-24T03:09:20;1.67;;;1.20;;
4754;SDS011;2391;47.212;7.542;2022-11-24T03:11:46;6.07;;;1.67;;
4754;SDS011;2391;47.212;7.542;2022-11-24T03:14:12;2.03;;;0.80;;
4754;SDS011;2391;47.212;7.542;2022-11-24T03:16:37;2.00;;;0.60;;
4754;SDS011;2391;47.212;7.542;2022-11-24T03:19:03;2.80;;;0.60;;
4754;SDS011;2391;47.212;7.542;2022-11-24T03:21:29;1.87;;;0.67;;
4754;SDS011;2391;47.212;7.542;2022-11-24T03:23:55;1.63;;;1.00;;
4754;SDS011;2391;47.212;7.542;2022-11-24T03:26:22;1.53;;;0.70;;
4754;SDS011;2391;47.212;7.542;2022-11-24T03:28:50;5.73;;;0.90;;
4754;SDS011;2391;47.212;7.542;2022-11-24T03:31:22;5.00;;;0.90;;
4754;SDS011;2391;47.212;7.542;2022-11-24T03:33:49;0.90;;;0.80;;
4754;SDS011;2391;47.212;7.542;2022-11-24T03:36:16;0.93;;;0.70;;
4754;SDS011;2391;47.212;7.542;2022-11-24T03:38:42;1.67;;;1.53;;
4754;SDS011;2391;47.212;7.542;2022-11-24T03:41:08;1.43;;;0.83;;
4754;SDS011;2391;47.212;7.542;2022-11-24T03:43:34;3.60;;;0.90;;
4754;SDS011;2391;47.212;7.542;2022-11-24T03:46:00;2.67;;;0.90;;
4754;SDS011;2391;47.212;7.542;2022-11-24T03:48:25;3.70;;;0.90;;
4754;SDS011;2391;47.212;7.542;2022-11-24T03:50:52;4.63;;;0.80;;
4754;SDS011;2391;47.212;7.542;2022-11-24T03:53:20;2.40;;;0.80;;
4754;SDS011;2391;47.212;7.542;2022-11-24T03:55:47;1.03;;;0.70;;
4754;SDS011;2391;47.212;7.542;2022-11-24T03:58:13;5.20;;;1.00;;
4754;SDS011;2391;47.212;7.542;2022-11-24T04:00:38;6.20;;;0.90;;
4754;SDS011;2391;47.212;7.542;2022-11-24T04:03:04;2.50;;;0.80;;
4754;SDS011;2391;47.212;7.542;2022-11-24T04:05:30;2.17;;;0.77;;
4754;SDS011;2391;47.212;7.542;2022-11-24T04:07:57;2.30;;;0.80;;
4754;SDS011;2391;47.212;7.542;2022-11-24T04:10:25;1.53;;;0.80;;
4754;SDS011;2391;47.212;7.542;2022-11-24T04:12:51;1.27;;;0.80;;
4754;SDS011;2391;47.212;7.542;2022-11-24T04:15:17;2.97;;;1.10;;
4754;SDS011;2391;47.212;7.542;2022-11-24T04:17:44;3.13;;;1.00;;
4754;SDS011;2391;47.212;7.542;2022-11-24T04:20:11;1.93;;;0.87;;
4754;SDS011;2391;47.212;7.542;2022-11-24T04:22:38;2.07;;;0.77;;
4754;SDS011;2391;47.212;7.542;2022-11-24T04:25:04;2.30;;;1.00;;
4754;SDS011;2391;47.212;7.542;2022-11-24T04:27:31;4.13;;;0.90;;
4754;SDS011;2391;47.212;7.542;2022-11-24T04:29:58;5.10;;;0.93;;
4754;SDS011;2391;47.212;7.542;2022-11-24T04:32:24;1.27;;;0.87;;
4754;SDS011;2391;47.212;7.542;2022-11-24T04:34:50;3.13;;;0.87;;
4754;SDS011;2391;47.212;7.542;2022-11-24T04:37:16;2.10;;;1.03;;
4754;SDS011;2391;47.212;7.542;2022-11-24T04:39:42;1.47;;;0.80;;
4754;SDS011;2391;47.212;7.542;2022-11-24T04:42:08;8.43;;;0.90;;
4754;SDS011;2391;47.212;7.542;2022-11-24T04:44:33;2.00;;;0.90;;
4754;SDS011;2391;47.212;7.542;2022-11-24T04:46:59;2.07;;;0.93;;
4754;SDS011;2391;47.212;7.542;2022-11-24T04:49:25;3.10;;;1.00;;
4754;SDS011;2391;47.212;7.542;2022-11-24T04:51:51;6.20;;;1.10;;
4754;SDS011;2391;47.212;7.542;2022-11-24T04:54:17;3.20;;;1.00;;
4754;SDS011;2391;47.212;7.542;2022-11-24T04:56:43;3.73;;;0.90;;
4754;SDS011;2391;47.212;7.542;2022-11-24T04:59:14;1.87;;;0.90;;
4754;SDS011;2391;47.212;7.542;2022-11-24T05:01:41;2.10;;;0.80;;
4754;SDS011;2391;47.212;7.542;2022-11-24T05:04:08;3.00;;;0.90;;
4754;SDS011;2391;47.212;7.542;2022-11-24T05:06:38;1.67;;;0.90;;
4754;SDS011;2391;47.212;7.542;2022-11-24T05:09:04;4.87;;;1.03;;
4754;SDS011;2391;47.212;7.542;2022-11-24T05:11:31;5.40;;;1.10;;
4754;SDS011;2391;47.212;7.542;2022-11-24T05:13:58;1.83;;;1.10;;
4754;SDS011;2391;47.212;7.542;2022-11-24T05:16:24;2.83;;;0.90;;
4754;SDS011;2391;47.212;7.542;2022-11-24T05:18:51;8.20;;;0.90;;
4754;SDS011;2391;47.212;7.542;2022-11-24T05:21:17;2.30;;;1.00;;
4754;SDS011;2391;47.212;7.542;2022-11-24T05:23:42;2.43;;;0.87;;
4754;SDS011;2391;47.212;7.542;2022-11-24T05:26:09;8.83;;;1.30;;
4754;SDS011;2391;47.212;7.542;2022-11-24T05:28:35;4.40;;;1.10;;
4754;SDS011;2391;47.212;7.542;2022-11-24T05:31:01;3.43;;;1.43;;
4754;SDS011;2391;47.212;7.542;2022-11-24T05:33:28;2.90;;;1.30;;
4754;SDS011;2391;47.212;7.542;2022-11-24T05:36:05;1.30;;;1.10;;
4754;SDS011;2391;47.212;7.542;2022-11-24T05:38:29;6.10;;;0.90;;
4754;SDS011;2391;47.212;7.542;2022-11-24T05:40:59;3.27;;;1.10;;
4754;SDS011;2391;47.212;7.542;2022-11-24T05:43:26;2.30;;;1.47;;
4754;SDS011;2391;47.212;7.542;2022-11-24T05:45:52;8.27;;;1.10;;
4754;SDS011;2391;47.212;7.542;2022-11-24T05:48:18;3.10;;;1.40;;
4754;SDS011;2391;47.212;7.542;2022-11-24T05:50:46;3.43;;;1.10;;
4754;SDS011;2391;47.212;7.542;2022-11-24T05:53:16;3.87;;;1.40;;
4754;SDS011;2391;47.212;7.542;2022-11-24T05:55:42;4.00;;;1.43;;
4754;SDS011;2391;47.212;7.542;2022-11-24T05:58:08;4.40;;;1.10;;
4754;SDS011;2391;47.212;7.542;2022-11-24T06:00:34;6.23;;;1.47;;
4754;SDS011;2391;47.212;7.542;2022-11-24T06:03:01;5.03;;;1.20;;
4754;SDS011;2391;47.212;7.542;2022-11-24T06:05:28;6.77;;;1.10;;
4754;SDS011;2391;47.212;7.542;2022-11-24T06:07:54;3.43;;;1.30;;
4754;SDS011;2391;47.212;7.542;2022-11-24T06:10:22;3.20;;;1.10;;
4754;SDS011;2391;47.212;7.542;2022-11-24T06:12:48;2.27;;;1.33;;
4754;SDS011;2391;47.212;7.542;2022-11-24T06:15:15;4.57;;;1.47;;
4754;SDS011;2391;47.212;7.542;2022-11-24T06:17:41;2.13;;;1.13;;
4754;SDS011;2391;47.212;7.542;2022-11-24T06:20:08;3.33;;;1.23;;
4754;SDS011;2391;47.212;7.542;2022-11-24T06:22:36;9.23;;;1.33;;
4754;SDS011;2391;47.212;7.542;2022-11-24T06:25:02;3.93;;;1.33;;
4754;SDS011;2391;47.212;7.542;2022-11-24T06:27:28;3.03;;;1.07;;
4754;SDS011;2391;47.212;7.542;2022-11-24T06:29:54;3.73;;;1.50;;
4754;SDS011;2391;47.212;7.542;2022-11-24T06:32:20;6.20;;;1.60;;
4754;SDS011;2391;47.212;7.542;2022-11-24T06:34:46;7.10;;;1.30;;
4754;SDS011;2391;47.212;7.542;2022-11-24T06:37:12;6.87;;;1.27;;
4754;SDS011;2391;47.212;7.542;2022-11-24T06:39:37;5.57;;;1.40;;
4754;SDS011;2391;47.212;7.542;2022-11-24T06:42:03;1.20;;;1.10;;
4754;SDS011;2391;47.212;7.542;2022-11-24T06:44:29;2.63;;;1.13;;
4754;SDS011;2391;47.212;7.542;2022-11-24T06:46:55;4.30;;;1.20;;
4754;SDS011;2391;47.212;7.542;2022-11-24T06:49:20;2.80;;;1.43;;
4754;SDS011;2391;47.212;7.542;2022-11-24T06:51:46;3.20;;;1.20;;
4754;SDS011;2391;47.212;7.542;2022-11-24T06:54:16;3.23;;;1.30;;
4754;SDS011;2391;47.212;7.542;2022-11-24T06:56:40;4.30;;;1.13;;
4754;SDS011;2391;47.212;7.542;2022-11-24T06:59:06;3.77;;;1.30;;
4754;SDS011;2391;47.212;7.542;2022-11-24T07:01:32;6.40;;;1.30;;
4754;SDS011;2391;47.212;7.542;2022-11-24T07:03:57;6.63;;;1.60;;
4754;SDS011;2391;47.212;7.542;2022-11-24T07:06:24;5.93;;;1.50;;
4754;SDS011;2391;47.212;7.542;2022-11-24T07:08:51;2.83;;;1.43;;
4754;SDS011;2391;47.212;7.542;2022-11-24T07:11:19;2.43;;;1.50;;
4754;SDS011;2391;47.212;7.542;2022-11-24T07:13:46;5.20;;;1.73;;
4754;SDS011;2391;47.212;7.542;2022-11-24T07:18:43;8.20;;;1.60;;
4754;SDS011;2391;47.212;7.542;2022-11-24T07:21:09;3.50;;;1.57;;
4754;SDS011;2391;47.212;7.542;2022-11-24T07:23:36;5.77;;;1.37;;
4754;SDS011;2391;47.212;7.542;2022-11-24T07:26:03;6.87;;;1.43;;
4754;SDS011;2391;47.212;7.542;2022-11-24T07:28:30;3.70;;;1.00;;
4754;SDS011;2391;47.212;7.542;2022-11-24T07:30:56;8.20;;;1.60;;
4754;SDS011;2391;47.212;7.542;2022-11-24T07:33:23;4.30;;;1.30;;
4754;SDS011;2391;47.212;7.542;2022-11-24T07:35:51;3.57;;;1.10;;
4754;SDS011;2391;47.212;7.542;2022-11-24T07:38:17;4.23;;;1.00;;
4754;SDS011;2391;47.212;7.542;2022-11-24T07:40:44;3.93;;;1.30;;
4754;SDS011;2391;47.212;7.542;2022-11-24T07:43:10;6.20;;;1.17;;
4754;SDS011;2391;47.212;7.542;2022-11-24T07:45:36;4.20;;;1.17;;
4754;SDS011;2391;47.212;7.542;2022-11-24T07:48:01;2.37;;;1.10;;
4754;SDS011;2391;47.212;7.542;2022-11-24T07:50:27;4.27;;;1.33;;
4754;SDS011;2391;47.212;7.542;2022-11-24T07:52:53;6.40;;;1.33;;
4754;SDS011;2391;47.212;7.542;2022-11-24T07:55:19;6.33;;;1.20;;
4754;SDS011;2391;47.212;7.542;2022-11-24T07:57:45;10.03;;;1.40;;
4754;SDS011;2391;47.212;7.542;2022-11-24T08:00:11;6.27;;;1.70;;
4754;SDS011;2391;47.212;7.542;2022-11-24T08:02:37;12.13;;;1.83;;
4754;SDS011;2391;47.212;7.542;2022-11-24T08:05:03;1.70;;;1.20;;
4754;SDS011;2391;47.212;7.542;2022-11-24T08:07:29;3.17;;;1.27;;
4754;SDS011;2391;47.212;7.542;2022-11-24T08:09:55;5.73;;;1.30;;
4754;SDS011;2391;47.212;7.542;2022-11-24T08:12:21;6.00;;;1.10;;
4754;SDS011;2391;47.212;7.542;2022-11-24T08:14:47;11.17;;;1.73;;
4754;SDS011;2391;47.212;7.542;2022-11-24T08:17:15;6.27;;;1.97;;
4754;SDS011;2391;47.212;7.542;2022-11-24T08:19:42;8.60;;;1.70;;
4754;SDS011;2391;47.212;7.542;2022-11-24T08:22:08;9.53;;;2.00;;
4754;SDS011;2391;47.212;7.542;2022-11-24T08:24:34;3.40;;;1.50;;
4754;SDS011;2391;47.212;7.542;2022-11-24T08:27:00;6.03;;;1.50;;
4754;SDS011;2391;47.212;7.542;2022-11-24T08:29:26;8.77;;;1.80;;
4754;SDS011;2391;47.212;7.542;2022-11-24T08:31:53;11.10;;;1.73;;
4754;SDS011;2391;47.212;7.542;2022-11-24T08:34:22;7.73;;;1.80;;
4754;SDS011;2391;47.212;7.542;2022-11-24T08:36:48;14.97;;;2.37;;
4754;SDS011;2391;47.212;7.542;2022-11-24T08:39:15;7.83;;;1.90;;
4754;SDS011;2391;47.212;7.542;2022-11-24T08:41:40;4.90;;;1.97;;
4754;SDS011;2391;47.212;7.542;2022-11-24T08:44:06;3.30;;;1.50;;
4754;SDS011;2391;47.212;7.542;2022-11-24T08:46:34;8.10;;;1.30;;
4754;SDS011;2391;47.212;7.542;2022-11-24T08:49:00;3.53;;;1.67;;
4754;SDS011;2391;47.212;7.542;2022-11-24T08:51:26;4.80;;;1.90;;
4754;SDS011;2391;47.212;7.542;2022-11-24T08:53:53;3.60;;;1.03;;
4754;SDS011;2391;47.212;7.542;2022-11-24T08:56:21;7.13;;;1.53;;
4754;SDS011;2391;47.212;7.542;2022-11-24T08:58:47;4.37;;;1.50;;
4754;SDS011;2391;47.212;7.542;2022-11-24T09:01:13;6.10;;;1.70;;
4754;SDS011;2391;47.212;7.542;2022-11-24T09:03:41;8.40;;;1.83;;
4754;SDS011;2391;47.212;7.542;2022-11-24T09:06:08;11.77;;;1.80;;
4754;SDS011;2391;47.212;7.542;2022-11-24T09:08:35;9.93;;;2.03;;
4754;SDS011;2391;47.212;7.542;2022-11-24T09:11:02;4.87;;;1.40;;
4754;SDS011;2391;47.212;7.542;2022-11-24T09:13:31;11.73;;;1.60;;
4754;SDS011;2391;47.212;7.542;2022-11-24T09:16:04;5.50;;;1.30;;
4754;SDS011;2391;47.212;7.542;2022-11-24T09:18:32;5.37;;;1.23;;
4754;SDS011;2391;47.212;7.542;2022-11-24T09:21:05;6.80;;;1.30;;
4754;SDS011;2391;47.212;7.542;2022-11-24T09:23:35;15.80;;;1.23;;
4754;SDS011;2391;47.212;7.542;2022-11-24T09:26:02;8.53;;;1.60;;
4754;SDS011;2391;47.212;7.542;2022-11-24T09:28:29;10.50;;;2.20;;
4754;SDS011;2391;47.212;7.542;2022-11-24T09:30:54;8.43;;;2.10;;
4754;SDS011;2391;47.212;7.542;2022-11-24T09:33:27;10.90;;;1.93;;
4754;SDS011;2391;47.212;7.542;2022-11-24T09:35:53;4.17;;;1.50;;
4754;SDS011;2391;47.212;7.542;2022-11-24T09:38:18;3.13;;;1.40;;
4754;SDS011;2391;47.212;7.542;2022-11-24T09:40:44;8.60;;;1.90;;
4754;SDS011;2391;47.212;7.542;2022-11-24T09:43:11;10.43;;;1.40;;
4754;SDS011;2391;47.212;7.542;2022-11-24T09:48:14;6.47;;;2.20;;
4754;SDS011;2391;47.212;7.542;2022-11-24T09:50:41;11.80;;;2.00;;
4754;SDS011;2391;47.212;7.542;2022-11-24T09:58:50;5.63;;;2.00;;
4754;SDS011;2391;47.212;7.542;2022-11-24T10:03:48;4.63;;;1.80;;
4754;SDS011;2391;47.212;7.542;2022-11-24T10:14:57;8.00;;;2.00;;
4754;SDS011;2391;47.212;7.542;2022-11-24T10:22:57;12.90;;;2.13;;
4754;SDS011;2391;47.212;7.542;2022-11-24T10:25:47;8.77;;;1.80;;
4754;SDS011;2391;47.212;7.542;2022-11-24T10:28:21;3.03;;;1.33;;
4754;SDS011;2391;47.212;7.542;2022-11-24T10:30:59;5.57;;;1.63;;
4754;SDS011;2391;47.212;7.542;2022-11-24T10:33:43;4.77;;;1.80;;
4754;SDS011;2391;47.212;7.542;2022-11-24T10:36:11;10.23;;;2.27;;
4754;SDS011;2391;47.212;7.542;2022-11-24T10:38:44;9.97;;;1.73;;
4754;SDS011;2391;47.212;7.542;2022-11-24T10:41:17;11.40;;;1.97;;
4754;SDS011;2391;47.212;7.542;2022-11-24T10:43:41;7.07;;;1.70;;
4754;SDS011;2391;47.212;7.542;2022-11-24T10:46:14;8.17;;;2.00;;
4754;SDS011;2391;47.212;7.542;2022-11-24T10:48:51;6.73;;;1.97;;
4754;SDS011;2391;47.212;7.542;2022-11-24T10:54:04;4.47;;;1.33;;
4754;SDS011;2391;47.212;7.542;2022-11-24T10:56:36;18.10;;;2.77;;
4754;SDS011;2391;47.212;7.542;2022-11-24T10:58:56;8.83;;;1.77;;
4754;SDS011;2391;47.212;7.542;2022-11-24T11:01:30;9.23;;;1.30;;
4754;SDS011;2391;47.212;7.542;2022-11-24T11:03:56;10.70;;;1.73;;
4754;SDS011;2391;47.212;7.542;2022-11-24T11:11:35;11.13;;;1.73;;
4754;SDS011;2391;47.212;7.542;2022-11-24T11:14:04;12.57;;;1.30;;
4754;SDS011;2391;47.212;7.542;2022-11-24T11:16:36;6.40;;;1.40;;
4754;SDS011;2391;47.212;7.542;2022-11-24T11:19:08;10.20;;;1.30;;
4754;SDS011;2391;47.212;7.542;2022-11-24T11:24:39;9.17;;;1.50;;
4754;SDS011;2391;47.212;7.542;2022-11-24T11:27:18;6.30;;;1.30;;
4754;SDS011;2391;47.212;7.542;2022-11-24T11:29:46;4.03;;;1.27;;
4754;SDS011;2391;47.212;7.542;2022-11-24T11:34:48;5.90;;;1.67;;
4754;SDS011;2391;47.212;7.542;2022-11-24T11:37:16;2.97;;;1.17;;
4754;SDS011;2391;47.212;7.542;2022-11-24T11:39:45;3.63;;;1.30;;
4754;SDS011;2391;47.212;7.542;2022-11-24T11:44:45;4.70;;;1.20;;
4754;SDS011;2391;47.212;7.542;2022-11-24T11:47:22;5.70;;;2.07;;
4754;SDS011;2391;47.212;7.542;2022-11-24T11:49:49;8.90;;;1.27;;
4754;SDS011;2391;47.212;7.542;2022-11-24T11:52:39;2.30;;;0.90;;
4754;SDS011;2391;47.212;7.542;2022-11-24T12:00:25;4.10;;;0.90;;
4754;SDS011;2391;47.212;7.542;2022-11-24T12:11:22;3.90;;;1.00;;
4754;SDS011;2391;47.212;7.542;2022-11-24T12:16:43;8.03;;;1.20;;
4754;SDS011;2391;47.212;7.542;2022-11-24T12:19:18;4.80;;;1.20;;
4754;SDS011;2391;47.212;7.542;2022-11-24T12:29:58;7.50;;;1.57;;
4754;SDS011;2391;47.212;7.542;2022-11-24T12:32:54;7.80;;;1.30;;
4754;SDS011;2391;47.212;7.542;2022-11-24T12:43:34;10.07;;;1.13;;
4754;SDS011;2391;47.212;7.542;2022-11-24T12:51:05;9.93;;;1.20;;
4754;SDS011;2391;47.212;7.542;2022-11-24T12:53:34;2.63;;;1.00;;
4754;SDS011;2391;47.212;7.542;2022-11-24T12:56:09;4.17;;;1.00;;
4754;SDS011;2391;47.212;7.542;2022-11-24T13:01:32;4.33;;;1.00;;
4754;SDS011;2391;47.212;7.542;2022-11-24T13:04:04;5.43;;;1.33;;
4754;SDS011;2391;47.212;7.542;2022-11-24T13:09:22;4.80;;;1.03;;
4754;SDS011;2391;47.212;7.542;2022-11-24T13:11:49;3.07;;;0.80;;
4754;SDS011;2391;47.212;7.542;2022-11-24T13:14:20;2.50;;;1.10;;
4754;SDS011;2391;47.212;7.542;2022-11-24T13:17:02;2.53;;;1.10;;
4754;SDS011;2391;47.212;7.542;2022-11-24T13:19:33;6.33;;;1.10;;
4754;SDS011;2391;47.212;7.542;2022-11-24T13:24:37;7.00;;;2.13;;
4754;SDS011;2391;47.212;7.542;2022-11-24T13:27:24;9.93;;;1.57;;
4754;SDS011;2391;47.212;7.542;2022-11-24T13:39:52;5.13;;;1.47;;
4754;SDS011;2391;47.212;7.542;2022-11-24T13:42:23;9.00;;;1.50;;
4754;SDS011;2391;47.212;7.542;2022-11-24T13:45:03;5.87;;;1.60;;
4754;SDS011;2391;47.212;7.542;2022-11-24T13:52:38;9.63;;;1.97;;
4754;SDS011;2391;47.212;7.542;2022-11-24T13:57:48;8.17;;;1.40;;
4754;SDS011;2391;47.212;7.542;2022-11-24T14:00:24;6.03;;;1.70;;
4754;SDS011;2391;47.212;7.542;2022-11-24T14:03:02;5.13;;;1.63;;
4754;SDS011;2391;47.212;7.542;2022-11-24T14:05:48;7.70;;;1.40;;
4754;SDS011;2391;47.212;7.542;2022-11-24T14:08:19;3.90;;;1.17;;
4754;SDS011;2391;47.212;7.542;2022-11-24T14:10:48;7.03;;;1.20;;
4754;SDS011;2391;47.212;7.542;2022-11-24T14:13:28;3.20;;;1.13;;
4754;SDS011;2391;47.212;7.542;2022-11-24T14:16:15;5.67;;;1.60;;
4754;SDS011;2391;47.212;7.542;2022-11-24T14:18:32;4.20;;;1.03;;
4754;SDS011;2391;47.212;7.542;2022-11-24T14:21:00;3.30;;;1.30;;
4754;SDS011;2391;47.212;7.542;2022-11-24T14:23:28;4.70;;;1.33;;
4754;SDS011;2391;47.212;7.542;2022-11-24T14:25:55;3.40;;;1.10;;
4754;SDS011;2391;47.212;7.542;2022-11-24T14:28:25;4.20;;;1.10;;
4754;SDS011;2391;47.212;7.542;2022-11-24T14:31:06;4.97;;;1.53;;
4754;SDS011;2391;47.212;7.542;2022-11-24T14:33:33;6.27;;;1.10;;
4754;SDS011;2391;47.212;7.542;2022-11-24T14:35:59;5.87;;;1.03;;
4754;SDS011;2391;47.212;7.542;2022-11-24T14:38:25;2.70;;;0.90;;
4754;SDS011;2391;47.212;7.542;2022-11-24T14:40:51;7.50;;;1.03;;
4754;SDS011;2391;47.212;7.542;2022-11-24T14:45:54;4.63;;;1.20;;
4754;SDS011;2391;47.212;7.542;2022-11-24T14:48:34;3.90;;;1.10;;
4754;SDS011;2391;47.212;7.542;2022-11-24T14:51:22;5.93;;;1.67;;
4754;SDS011;2391;47.212;7.542;2022-11-24T14:53:50;5.03;;;1.50;;
4754;SDS011;2391;47.212;7.542;2022-11-24T14:56:24;4.03;;;1.23;;
4754;SDS011;2391;47.212;7.542;2022-11-24T14:58:53;3.67;;;1.37;;
4754;SDS011;2391;47.212;7.542;2022-11-24T15:01:21;2.00;;;0.93;;
4754;SDS011;2391;47.212;7.542;2022-11-24T15:15:00;4.37;;;0.90;;
4754;SDS011;2391;47.212;7.542;2022-11-24T15:17:28;2.50;;;0.80;;
4754;SDS011;2391;47.212;7.542;2022-11-24T15:20:08;3.00;;;1.10;;
4754;SDS011;2391;47.212;7.542;2022-11-24T15:22:43;2.00;;;1.10;;
4754;SDS011;2391;47.212;7.542;2022-11-24T15:27:55;1.17;;;0.87;;
4754;SDS011;2391;47.212;7.542;2022-11-24T15:30:21;10.53;;;1.10;;
4754;SDS011;2391;47.212;7.542;2022-11-24T15:32:54;10.37;;;1.20;;
4754;SDS011;2391;47.212;7.542;2022-11-24T15:35:23;6.57;;;1.00;;
4754;SDS011;2391;47.212;7.542;2022-11-24T15:37:52;3.73;;;1.50;;
4754;SDS011;2391;47.212;7.542;2022-11-24T15:40:17;8.70;;;1.50;;
4754;SDS011;2391;47.212;7.542;2022-11-24T15:42:53;2.03;;;1.13;;
4754;SDS011;2391;47.212;7.542;2022-11-24T15:45:17;2.93;;;1.63;;
4754;SDS011;2391;47.212;7.542;2022-11-24T15:47:43;5.90;;;1.60;;
4754;SDS011;2391;47.212;7.542;2022-11-24T15:50:09;9.10;;;2.30;;
4754;SDS011;2391;47.212;7.542;2022-11-24T15:52:35;5.70;;;1.83;;
4754;SDS011;2391;47.212;7.542;2022-11-24T15:55:01;7.03;;;1.40;;
4754;SDS011;2391;47.212;7.542;2022-11-24T15:57:28;5.00;;;1.23;;
4754;SDS011;2391;47.212;7.542;2022-11-24T15:59:54;5.33;;;1.70;;
4754;SDS011;2391;47.212;7.542;2022-11-24T16:02:19;12.90;;;2.10;;
4754;SDS011;2391;47.212;7.542;2022-11-24T16:04:46;4.27;;;1.70;;
4754;SDS011;2391;47.212;7.542;2022-11-24T16:07:13;5.17;;;1.60;;
4754;SDS011;2391;47.212;7.542;2022-11-24T16:09:39;4.00;;;1.53;;
4754;SDS011;2391;47.212;7.542;2022-11-24T16:12:05;6.63;;;1.13;;
4754;SDS011;2391;47.212;7.542;2022-11-24T16:14:32;7.77;;;1.30;;
4754;SDS011;2391;47.212;7.542;2022-11-24T16:16:59;6.87;;;1.33;;
4754;SDS011;2391;47.212;7.542;2022-11-24T16:19:25;4.60;;;1.20;;
4754;SDS011;2391;47.212;7.542;2022-11-24T16:21:51;8.20;;;1.50;;
4754;SDS011;2391;47.212;7.542;2022-11-24T16:24:17;5.80;;;1.30;;
4754;SDS011;2391;47.212;7.542;2022-11-24T16:26:43;4.23;;;1.20;;
4754;SDS011;2391;47.212;7.542;2022-11-24T16:29:08;10.30;;;1.40;;
4754;SDS011;2391;47.212;7.542;2022-11-24T16:31:34;5.23;;;1.20;;
4754;SDS011;2391;47.212;7.542;2022-11-24T16:34:01;5.60;;;1.70;;
4754;SDS011;2391;47.212;7.542;2022-11-24T16:36:27;4.73;;;1.20;;
4754;SDS011;2391;47.212;7.542;2022-11-24T16:38:52;2.30;;;1.13;;
4754;SDS011;2391;47.212;7.542;2022-11-24T16:41:18;2.20;;;1.20;;
4754;SDS011;2391;47.212;7.542;2022-11-24T16:43:46;4.53;;;1.20;;
4754;SDS011;2391;47.212;7.542;2022-11-24T16:48:51;3.53;;;1.37;;
4754;SDS011;2391;47.212;7.542;2022-11-24T16:51:20;2.83;;;1.23;;
4754;SDS011;2391;47.212;7.542;2022-11-24T16:53:49;2.00;;;1.60;;
4754;SDS011;2391;47.212;7.542;2022-11-24T16:56:23;3.97;;;1.43;;
4754;SDS011;2391;47.212;7.542;2022-11-24T16:58:50;4.20;;;1.30;;
4754;SDS011;2391;47.212;7.542;2022-11-24T17:01:16;2.47;;;1.27;;
4754;SDS011;2391;47.212;7.542;2022-11-24T17:03:41;5.23;;;1.43;;
4754;SDS011;2391;47.212;7.542;2022-11-24T17:06:09;2.97;;;1.40;;
4754;SDS011;2391;47.212;7.542;2022-11-24T17:08:36;1.90;;;1.40;;
4754;SDS011;2391;47.212;7.542;2022-11-24T17:11:09;3.47;;;2.10;;
4754;SDS011;2391;47.212;7.542;2022-11-24T17:13:33;4.33;;;1.60;;
4754;SDS011;2391;47.212;7.542;2022-11-24T17:16:03;1.87;;;1.30;;
4754;SDS011;2391;47.212;7.542;2022-11-24T17:18:30;1.67;;;1.30;;
4754;SDS011;2391;47.212;7.542;2022-11-24T17:20:56;2.63;;;1.53;;
4754;SDS011;2391;47.212;7.542;2022-11-24T17:23:23;4.93;;;2.43;;
4754;SDS011;2391;47.212;7.542;2022-11-24T17:25:49;6.17;;;2.60;;
4754;SDS011;2391;47.212;7.542;2022-11-24T17:28:15;3.50;;;2.73;;
4754;SDS011;2391;47.212;7.542;2022-11-24T17:30:41;4.50;;;3.60;;